createdAt,value
2022-08-29T00:00:25.292Z,98.36
2022-08-29T00:01:30.384Z,98.38
2022-08-29T00:02:33.962Z,98.53
2022-08-29T00:03:40.676Z,98.69
2022-08-29T00:04:44.638Z,98.74
2022-08-29T00:05:49.995Z,98.43
2022-08-29T00:06:54.463Z,98.26
2022-08-29T00:08:00.976Z,98.55
2022-08-29T00:09:05.045Z,98.63
2022-08-29T00:10:09.703Z,98.41
2022-08-29T00:11:14.661Z,98.94
2022-08-29T00:12:18.288Z,99.23
2022-08-29T00:13:22.637Z,99.31
2022-08-29T00:14:26.673Z,99.13
2022-08-29T00:15:30.914Z,98.97
2022-08-29T00:16:35.905Z,98.79
2022-08-29T00:17:39.789Z,98.75
2022-08-29T00:18:43.594Z,98.61
2022-08-29T00:19:47.027Z,98.24
2022-08-29T00:20:51.123Z,98.23
2022-08-29T00:21:54.730Z,98.01
2022-08-29T00:22:59.034Z,97.98
2022-08-29T00:24:02.867Z,97.61
2022-08-29T00:25:08.608Z,97.64
2022-08-29T00:26:12.952Z,97.37
2022-08-29T00:27:16.980Z,97.65
2022-08-29T00:28:21.479Z,97.44
2022-08-29T00:29:24.915Z,97.71
2022-08-29T00:30:28.559Z,97.54
2022-08-29T00:31:32.296Z,97.57
2022-08-29T00:32:36.456Z,97.54
2022-08-29T00:33:40.219Z,97.13
2022-08-29T00:34:43.651Z,96.96
2022-08-29T00:35:47.703Z,97.24
2022-08-29T00:36:51.824Z,96.87
2022-08-29T00:37:56.391Z,97.46
2022-08-29T00:38:59.950Z,97.89
2022-08-29T00:40:07.821Z,97.95
2022-08-29T00:41:11.545Z,97.69
2022-08-29T00:42:15.029Z,97.96
2022-08-29T00:43:23.177Z,97.82
2022-08-29T00:44:26.823Z,97.86
2022-08-29T00:45:31.252Z,97.93
2022-08-29T00:46:40.899Z,97.86
2022-08-29T00:47:55.218Z,97.78
2022-08-29T00:49:08.714Z,97.85
2022-08-29T00:50:31.679Z,97.88
2022-08-29T00:51:36.638Z,97.37
2022-08-29T00:52:46.890Z,97.70
2022-08-29T00:54:01.596Z,97.88
2022-08-29T00:55:12.289Z,97.52
2022-08-29T00:56:19.005Z,98.27
2022-08-29T00:57:25.109Z,98.12
2022-08-29T00:58:53.644Z,98.21
2022-08-29T00:59:58.232Z,97.88
2022-08-29T01:01:02.271Z,97.89
2022-08-29T01:02:07.805Z,97.70
2022-08-29T01:03:11.339Z,97.64
2022-08-29T01:04:23.853Z,97.64
2022-08-29T01:05:28.129Z,97.55
2022-08-29T01:06:32.793Z,97.47
2022-08-29T01:07:37.982Z,97.42
2022-08-29T01:08:45.839Z,97.31
2022-08-29T01:09:49.817Z,97.12
2022-08-29T01:11:11.888Z,96.95
2022-08-29T01:12:16.692Z,96.91
2022-08-29T01:13:29.813Z,96.88
2022-08-29T01:14:38.251Z,97.05
2022-08-29T01:15:44.408Z,97.12
2022-08-29T01:16:51.170Z,97.18
2022-08-29T01:17:56.048Z,97.06
2022-08-29T01:19:28.164Z,97.21
2022-08-29T01:20:54.752Z,96.60
2022-08-29T01:22:23.644Z,96.78
2022-08-29T01:24:01.359Z,96.45
2022-08-29T01:25:16.345Z,96.77
2022-08-29T01:26:22.519Z,96.89
2022-08-29T01:27:31.467Z,96.84
2022-08-29T01:28:43.757Z,97.07
2022-08-29T01:29:48.061Z,97.02
2022-08-29T01:31:55.638Z,97.47
2022-08-29T01:32:52.814Z,97.20
2022-08-29T01:33:59.507Z,97.59
2022-08-29T01:35:03.563Z,97.53
2022-08-29T01:36:10.783Z,97.26
2022-08-29T01:37:16.854Z,97.80
2022-08-29T01:38:27.827Z,97.73
2022-08-29T01:39:36.405Z,97.74
2022-08-29T01:40:40.149Z,97.46
2022-08-29T01:41:44.769Z,98.17
2022-08-29T01:42:48.355Z,98.18
2022-08-29T01:43:55.608Z,98.21
2022-08-29T01:45:00.964Z,98.33
2022-08-29T01:46:06.818Z,98.17
2022-08-29T01:47:11.846Z,98.30
2022-08-29T01:48:15.749Z,98.00
2022-08-29T01:49:22.197Z,98.35
2022-08-29T01:50:25.886Z,98.20
2022-08-29T01:51:29.891Z,98.21
2022-08-29T01:52:33.546Z,98.03
2022-08-29T01:53:38.612Z,98.01
2022-08-29T01:54:45.494Z,97.84
2022-08-29T01:55:49.065Z,97.93
2022-08-29T01:56:54.238Z,97.96
2022-08-29T01:57:57.780Z,98.08
2022-08-29T01:59:06.151Z,97.80
2022-08-29T02:00:12.085Z,97.88
2022-08-29T02:01:22.633Z,97.73
2022-08-29T02:02:30.015Z,97.58
2022-08-29T02:03:33.768Z,97.66
2022-08-29T02:04:38.325Z,97.96
2022-08-29T02:05:41.869Z,98.08
2022-08-29T02:06:45.858Z,98.58
2022-08-29T02:07:50.304Z,98.28
2022-08-29T02:08:55.088Z,98.01
2022-08-29T02:09:59.568Z,97.90
2022-08-29T02:11:04.137Z,97.85
2022-08-29T02:12:08.169Z,97.66
2022-08-29T02:13:11.932Z,97.94
2022-08-29T02:14:19.692Z,97.66
2022-08-29T02:15:23.914Z,97.50
2022-08-29T02:16:30.132Z,97.72
2022-08-29T02:17:34.164Z,97.64
2022-08-29T02:18:38.070Z,97.70
2022-08-29T02:19:42.464Z,97.63
2022-08-29T02:20:46.414Z,97.32
2022-08-29T02:21:50.103Z,97.43
2022-08-29T02:22:53.762Z,97.54
2022-08-29T02:24:16.026Z,97.58
2022-08-29T02:25:44.173Z,97.51
2022-08-29T02:26:47.747Z,97.56
2022-08-29T02:27:52.507Z,97.53
2022-08-29T02:28:56.376Z,97.47
2022-08-29T02:29:59.992Z,97.41
2022-08-29T02:31:06.193Z,97.37
2022-08-29T02:32:15.279Z,97.39
2022-08-29T02:33:20.342Z,97.24
2022-08-29T02:34:24.186Z,96.98
2022-08-29T02:35:27.789Z,97.17
2022-08-29T02:36:33.724Z,96.96
2022-08-29T02:37:37.276Z,96.97
2022-08-29T02:38:41.251Z,97.10
2022-08-29T02:39:44.860Z,96.97
2022-08-29T02:40:50.461Z,96.98
2022-08-29T02:41:54.234Z,96.81
2022-08-29T02:42:58.133Z,96.93
2022-08-29T02:44:01.924Z,97.04
2022-08-29T02:45:06.407Z,96.64
2022-08-29T02:46:16.615Z,96.88
2022-08-29T02:47:20.247Z,96.84
2022-08-29T02:48:24.553Z,96.63
2022-08-29T02:49:28.255Z,96.53
2022-08-29T02:50:31.785Z,96.66
2022-08-29T02:51:35.514Z,96.32
2022-08-29T02:52:41.985Z,96.15
2022-08-29T02:53:45.529Z,95.90
2022-08-29T02:54:49.520Z,96.31
2022-08-29T02:55:54.165Z,96.28
2022-08-29T02:56:57.621Z,96.04
2022-08-29T02:58:01.418Z,95.89
2022-08-29T02:59:06.542Z,95.86
2022-08-29T03:00:16.540Z,95.96
2022-08-29T03:01:23.333Z,96.15
2022-08-29T03:02:27.825Z,96.00
2022-08-29T03:03:33.407Z,96.10
2022-08-29T03:04:37.043Z,95.85
2022-08-29T03:05:42.027Z,95.82
2022-08-29T03:06:46.903Z,95.69
2022-08-29T03:07:52.272Z,95.55
2022-08-29T03:08:56.177Z,95.69
2022-08-29T03:09:59.814Z,95.68
2022-08-29T03:11:03.760Z,95.57
2022-08-29T03:12:07.464Z,95.89
2022-08-29T03:13:11.723Z,95.92
2022-08-29T03:14:15.925Z,95.90
2022-08-29T03:15:20.898Z,95.78
2022-08-29T03:16:24.745Z,96.21
2022-08-29T03:17:28.476Z,96.06
2022-08-29T03:18:32.687Z,96.09
2022-08-29T03:19:37.472Z,96.14
2022-08-29T03:20:42.497Z,96.19
2022-08-29T03:21:46.022Z,96.22
2022-08-29T03:22:50.085Z,95.93
2022-08-29T03:23:56.517Z,95.81
2022-08-29T03:25:04.490Z,95.89
2022-08-29T03:26:08.689Z,95.89
2022-08-29T03:27:12.249Z,95.91
2022-08-29T03:28:15.982Z,96.05
2022-08-29T03:29:19.664Z,95.99
2022-08-29T03:30:23.978Z,95.96
2022-08-29T03:31:27.652Z,95.84
2022-08-29T03:32:31.304Z,95.78
2022-08-29T03:33:34.793Z,95.73
2022-08-29T03:34:39.303Z,95.76
2022-08-29T03:35:43.369Z,95.73
2022-08-29T03:36:46.897Z,95.82
2022-08-29T03:37:54.378Z,95.74
2022-08-29T03:38:57.971Z,95.79
2022-08-29T03:40:02.434Z,96.10
2022-08-29T03:41:07.801Z,95.97
2022-08-29T03:42:12.063Z,96.00
2022-08-29T03:43:15.559Z,95.87
2022-08-29T03:44:19.939Z,96.23
2022-08-29T03:45:25.651Z,96.36
2022-08-29T03:46:29.460Z,96.27
2022-08-29T03:47:33.097Z,96.53
2022-08-29T03:48:36.726Z,96.74
2022-08-29T03:49:40.849Z,97.03
2022-08-29T03:50:44.476Z,96.79
2022-08-29T03:51:50.146Z,96.85
2022-08-29T03:52:53.806Z,96.66
2022-08-29T03:53:58.496Z,96.74
2022-08-29T03:55:02.118Z,96.88
2022-08-29T03:56:06.279Z,96.81
2022-08-29T03:57:10.507Z,96.96
2022-08-29T03:58:14.112Z,97.29
2022-08-29T03:59:19.485Z,97.08
2022-08-29T04:00:23.581Z,97.58
2022-08-29T04:01:29.738Z,97.30
2022-08-29T04:02:33.371Z,97.43
2022-08-29T04:03:36.982Z,97.54
2022-08-29T04:04:59.084Z,97.33
2022-08-29T04:06:02.929Z,97.22
2022-08-29T04:07:07.060Z,97.17
2022-08-29T04:08:10.723Z,97.26
2022-08-29T04:09:14.304Z,97.54
2022-08-29T04:10:34.716Z,97.73
2022-08-29T04:11:38.584Z,97.18
2022-08-29T04:12:42.224Z,97.32
2022-08-29T04:13:47.922Z,97.62
2022-08-29T04:14:51.419Z,98.53
2022-08-29T04:15:54.948Z,98.29
2022-08-29T04:16:58.647Z,98.04
2022-08-29T04:18:15.653Z,97.92
2022-08-29T04:19:25.097Z,97.67
2022-08-29T04:20:33.175Z,97.95
2022-08-29T04:21:36.785Z,97.82
2022-08-29T04:22:43.031Z,97.75
2022-08-29T04:23:47.972Z,97.79
2022-08-29T04:24:54.652Z,97.90
2022-08-29T04:26:18.810Z,98.20
2022-08-29T04:27:21.814Z,97.99
2022-08-29T04:28:25.563Z,98.13
2022-08-29T04:29:29.335Z,98.30
2022-08-29T04:30:33.803Z,98.13
2022-08-29T04:31:39.501Z,98.12
2022-08-29T04:32:43.412Z,98.12
2022-08-29T04:33:50.249Z,98.13
2022-08-29T04:34:58.196Z,98.31
2022-08-29T04:36:06.411Z,98.16
2022-08-29T04:37:10.147Z,97.90
2022-08-29T04:38:13.765Z,97.77
2022-08-29T04:39:18.105Z,97.58
2022-08-29T04:40:23.355Z,97.45
2022-08-29T04:41:27.103Z,97.37
2022-08-29T04:42:31.327Z,97.22
2022-08-29T04:43:35.008Z,97.18
2022-08-29T04:44:38.770Z,97.35
2022-08-29T04:45:42.445Z,97.31
2022-08-29T04:46:45.980Z,97.43
2022-08-29T04:47:49.999Z,97.13
2022-08-29T04:48:54.488Z,97.18
2022-08-29T04:49:58.136Z,97.31
2022-08-29T04:51:02.370Z,97.09
2022-08-29T04:52:06.429Z,97.19
2022-08-29T04:53:09.934Z,97.17
2022-08-29T04:54:13.379Z,96.86
2022-08-29T04:55:21.661Z,97.03
2022-08-29T04:56:26.248Z,96.91
2022-08-29T04:57:29.799Z,96.92
2022-08-29T04:58:39.907Z,96.71
2022-08-29T04:59:43.838Z,96.83
2022-08-29T05:00:48.025Z,96.72
2022-08-29T05:01:51.734Z,96.94
2022-08-29T05:02:55.967Z,96.91
2022-08-29T05:03:59.855Z,96.73
2022-08-29T05:05:03.951Z,96.79
2022-08-29T05:06:12.380Z,96.59
2022-08-29T05:07:16.769Z,96.54
2022-08-29T05:08:21.157Z,96.38
2022-08-29T05:09:24.807Z,96.50
2022-08-29T05:10:29.238Z,96.73
2022-08-29T05:11:34.506Z,96.89
2022-08-29T05:12:38.200Z,96.81
2022-08-29T05:13:42.518Z,96.65
2022-08-29T05:14:47.014Z,96.65
2022-08-29T05:15:50.985Z,96.53
2022-08-29T05:16:54.472Z,96.51
2022-08-29T05:17:58.070Z,96.59
2022-08-29T05:19:01.624Z,96.56
2022-08-29T05:20:08.644Z,96.40
2022-08-29T05:21:14.276Z,96.36
2022-08-29T05:22:21.145Z,96.37
2022-08-29T05:23:24.848Z,96.49
2022-08-29T05:24:28.507Z,96.71
2022-08-29T05:25:33.401Z,96.66
2022-08-29T05:26:43.127Z,96.75
2022-08-29T05:27:48.049Z,96.74
2022-08-29T05:28:55.111Z,97.12
2022-08-29T05:30:00.242Z,97.11
2022-08-29T05:31:05.618Z,97.55
2022-08-29T05:32:12.797Z,97.36
2022-08-29T05:33:18.182Z,97.47
2022-08-29T05:34:34.315Z,97.60
2022-08-29T05:35:40.554Z,97.29
2022-08-29T05:36:48.135Z,97.39
2022-08-29T05:37:53.083Z,97.60
2022-08-29T05:38:58.758Z,97.68
2022-08-29T05:40:06.009Z,97.58
2022-08-29T05:41:12.107Z,97.70
2022-08-29T05:42:22.885Z,97.42
2022-08-29T05:43:30.892Z,97.64
2022-08-29T05:44:42.425Z,97.75
2022-08-29T05:45:47.406Z,97.54
2022-08-29T05:46:53.960Z,97.61
2022-08-29T05:48:02.741Z,97.77
2022-08-29T05:49:07.498Z,97.68
2022-08-29T05:50:17.697Z,97.94
2022-08-29T05:51:26.151Z,97.81
2022-08-29T05:52:32.619Z,97.69
2022-08-29T05:53:39.957Z,97.87
2022-08-29T05:54:46.131Z,97.88
2022-08-29T05:55:52.291Z,97.65
2022-08-29T05:56:58.545Z,97.57
2022-08-29T05:58:03.721Z,97.55
2022-08-29T05:59:10.326Z,97.56
2022-08-29T06:00:18.404Z,97.66
2022-08-29T06:01:33.082Z,97.66
2022-08-29T06:02:37.618Z,97.37
2022-08-29T06:03:45.916Z,97.54
2022-08-29T06:04:52.354Z,97.42
2022-08-29T06:05:57.078Z,97.34
2022-08-29T06:07:02.001Z,97.50
2022-08-29T06:08:07.544Z,97.38
2022-08-29T06:09:14.285Z,97.02
2022-08-29T06:10:18.504Z,97.21
2022-08-29T06:11:32.239Z,97.03
2022-08-29T06:12:38.432Z,97.01
2022-08-29T06:13:43.662Z,97.08
2022-08-29T06:14:50.687Z,97.19
2022-08-29T06:15:56.354Z,97.26
2022-08-29T06:17:02.696Z,97.42
2022-08-29T06:18:08.251Z,97.03
2022-08-29T06:19:13.647Z,97.22
2022-08-29T06:20:19.397Z,97.37
2022-08-29T06:21:25.192Z,97.33
2022-08-29T06:22:31.047Z,97.51
2022-08-29T06:23:41.074Z,98.34
2022-08-29T06:24:48.670Z,97.78
2022-08-29T06:25:59.680Z,97.71
2022-08-29T06:27:15.860Z,97.88
2022-08-29T06:28:24.065Z,97.95
2022-08-29T06:29:30.496Z,97.87
2022-08-29T06:30:37.343Z,97.80
2022-08-29T06:31:43.527Z,98.01
2022-08-29T06:32:49.143Z,98.19
2022-08-29T06:33:57.547Z,98.35
2022-08-29T06:35:02.191Z,98.17
2022-08-29T06:36:09.746Z,98.12
2022-08-29T06:37:14.739Z,98.08
2022-08-29T06:38:20.391Z,98.06
2022-08-29T06:39:25.244Z,98.18
2022-08-29T06:40:32.757Z,98.07
2022-08-29T06:41:44.508Z,97.85
2022-08-29T06:42:48.800Z,97.87
2022-08-29T06:43:55.960Z,98.02
2022-08-29T06:45:00.221Z,97.72
2022-08-29T06:46:06.237Z,97.54
2022-08-29T06:47:11.143Z,97.59
2022-08-29T06:48:16.719Z,97.26
2022-08-29T06:49:22.238Z,97.17
2022-08-29T06:50:29.171Z,96.64
2022-08-29T06:51:39.351Z,96.50
2022-08-29T06:52:47.165Z,96.02
2022-08-29T06:53:54.176Z,95.98
2022-08-29T06:54:58.611Z,95.80
2022-08-29T06:56:11.352Z,95.61
2022-08-29T06:57:18.084Z,95.47
2022-08-29T06:58:23.834Z,94.92
2022-08-29T06:59:30.698Z,94.29
2022-08-29T07:00:35.632Z,94.15
2022-08-29T07:01:46.090Z,93.88
2022-08-29T07:02:54.201Z,93.14
2022-08-29T07:04:00.489Z,91.69
2022-08-29T07:05:08.393Z,91.65
2022-08-29T07:06:15.112Z,90.80
2022-08-29T07:07:19.539Z,90.18
2022-08-29T07:08:24.211Z,89.60
2022-08-29T07:09:31.299Z,89.31
2022-08-29T07:10:36.517Z,88.93
2022-08-29T07:11:43.204Z,89.15
2022-08-29T07:12:48.230Z,89.09
2022-08-29T07:13:53.171Z,88.89
2022-08-29T07:14:57.338Z,88.55
2022-08-29T07:16:03.448Z,88.30
2022-08-29T07:17:07.979Z,87.70
2022-08-29T07:18:12.427Z,87.42
2022-08-29T07:19:17.649Z,86.68
2022-08-29T07:20:22.336Z,86.23
2022-08-29T07:21:31.561Z,85.77
2022-08-29T07:22:36.484Z,85.17
2022-08-29T07:23:42.660Z,85.13
2022-08-29T07:24:50.302Z,84.92
2022-08-29T07:25:55.064Z,84.50
2022-08-29T07:26:59.862Z,84.61
2022-08-29T07:28:05.534Z,84.69
2022-08-29T07:29:20.916Z,84.91
2022-08-29T07:30:26.919Z,84.93
2022-08-29T07:31:32.993Z,84.88
2022-08-29T07:32:38.450Z,85.06
2022-08-29T07:33:42.901Z,84.88
2022-08-29T07:34:54.109Z,84.55
2022-08-29T07:36:03.756Z,83.46
2022-08-29T07:37:11.626Z,82.62
2022-08-29T07:38:17.013Z,80.89
2022-08-29T07:39:23.386Z,80.34
2022-08-29T07:40:28.915Z,78.16
2022-08-29T07:41:39.843Z,75.90
2022-08-29T07:42:46.152Z,72.07
2022-08-29T07:43:51.614Z,69.42
2022-08-29T07:44:56.853Z,68.04
2022-08-29T07:46:15.502Z,64.04
2022-08-29T07:47:21.549Z,59.80
2022-08-29T07:48:28.049Z,58.88
2022-08-29T07:49:41.125Z,55.49
2022-08-29T07:50:46.199Z,53.92
2022-08-29T07:51:56.445Z,53.22
2022-08-29T07:53:03.856Z,53.16
2022-08-29T07:54:09.815Z,53.42
2022-08-29T07:55:18.980Z,52.58
2022-08-29T07:56:40.494Z,52.45
2022-08-29T07:57:48.911Z,52.11
2022-08-29T07:58:55.014Z,51.60
2022-08-29T08:00:01.251Z,50.57
2022-08-29T08:01:07.303Z,49.35
2022-08-29T08:02:15.889Z,48.71
2022-08-29T08:03:23.994Z,49.31
2022-08-29T08:04:30.316Z,49.33
2022-08-29T08:05:35.320Z,49.25
2022-08-29T08:06:43.025Z,49.74
2022-08-29T08:07:55.313Z,48.81
2022-08-29T08:09:04.157Z,46.75
2022-08-29T08:10:10.963Z,44.19
2022-08-29T08:11:16.894Z,43.45
2022-08-29T08:12:23.229Z,41.90
2022-08-29T08:13:29.047Z,40.42
2022-08-29T08:14:35.293Z,39.48
2022-08-29T08:15:41.593Z,39.07
2022-08-29T08:16:46.323Z,38.96
2022-08-29T08:17:50.900Z,39.14
2022-08-29T08:18:57.337Z,39.63
2022-08-29T08:20:07.257Z,40.26
2022-08-29T08:21:13.529Z,39.33
2022-08-29T08:22:18.363Z,37.35
2022-08-29T08:23:23.228Z,35.80
2022-08-29T08:24:28.380Z,34.37
2022-08-29T08:25:32.512Z,34.41
2022-08-29T08:26:37.540Z,35.69
2022-08-29T08:27:43.584Z,36.97
2022-08-29T08:28:49.244Z,38.67
2022-08-29T08:29:59.928Z,40.03
2022-08-29T08:31:09.253Z,41.55
2022-08-29T08:32:14.944Z,42.96
2022-08-29T08:33:19.679Z,43.99
2022-08-29T08:34:24.872Z,44.94
2022-08-29T08:35:30.624Z,45.68
2022-08-29T08:36:41.328Z,46.58
2022-08-29T08:37:48.510Z,46.38
2022-08-29T08:38:55.740Z,44.81
2022-08-29T08:40:03.186Z,41.61
2022-08-29T08:41:36.668Z,38.25
2022-08-29T08:42:45.877Z,35.74
2022-08-29T08:43:55.258Z,34.32
2022-08-29T08:45:27.441Z,32.12
2022-08-29T08:46:41.443Z,32.29
2022-08-29T08:48:08.711Z,32.42
2022-08-29T08:49:44.596Z,34.26
2022-08-29T08:51:26.299Z,36.46
2022-08-29T08:53:22.968Z,39.25
2022-08-29T08:54:41.615Z,41.08
2022-08-29T08:55:51.352Z,42.33
2022-08-29T08:57:08.300Z,44.02
2022-08-29T08:58:32.572Z,45.41
2022-08-29T08:59:45.794Z,46.19
2022-08-29T09:01:34.350Z,47.40
2022-08-29T09:03:01.176Z,48.67
2022-08-29T09:04:46.201Z,49.59
2022-08-29T09:06:25.101Z,50.49
2022-08-29T09:08:15.816Z,51.40
2022-08-29T09:09:54.550Z,50.09
2022-08-29T09:11:48.334Z,46.21
2022-08-29T09:13:37.283Z,42.15
2022-08-29T09:15:14.325Z,40.21
2022-08-29T09:16:43.108Z,39.90
2022-08-29T09:18:07.085Z,40.76
2022-08-29T09:19:17.385Z,40.72
2022-08-29T09:20:32.380Z,42.01
2022-08-29T09:22:06.705Z,42.51
2022-08-29T09:23:44.387Z,43.55
2022-08-29T09:25:07.454Z,44.99
2022-08-29T09:26:24.751Z,45.44
2022-08-29T09:27:35.342Z,46.61
2022-08-29T09:28:41.683Z,47.23
2022-08-29T09:29:48.549Z,47.54
2022-08-29T09:31:23.613Z,48.54
2022-08-29T09:32:32.307Z,48.63
2022-08-29T09:33:51.355Z,49.02
2022-08-29T09:35:15.444Z,49.10
2022-08-29T09:36:51.986Z,49.49
2022-08-29T09:38:08.702Z,50.04
2022-08-29T09:39:28.957Z,50.27
2022-08-29T09:40:59.373Z,50.45
2022-08-29T09:42:14.432Z,51.17
2022-08-29T09:43:46.841Z,51.38
2022-08-29T09:45:26.523Z,51.96
2022-08-29T09:46:32.362Z,52.02
2022-08-29T09:47:37.700Z,51.97
2022-08-29T09:48:53.778Z,51.95
2022-08-29T09:50:26.892Z,51.59
2022-08-29T09:51:45.737Z,51.63
2022-08-29T09:53:01.317Z,51.54
2022-08-29T09:54:29.969Z,50.74
2022-08-29T09:55:45.149Z,50.46
2022-08-29T09:57:30.116Z,49.84
2022-08-29T09:58:42.496Z,49.29
2022-08-29T10:00:07.860Z,49.28
2022-08-29T10:01:25.610Z,49.42
2022-08-29T10:02:49.822Z,49.49
2022-08-29T10:04:03.683Z,49.09
2022-08-29T10:05:13.247Z,49.30
2022-08-29T10:06:32.673Z,49.74
2022-08-29T10:07:51.247Z,49.54
2022-08-29T10:09:34.048Z,50.67
2022-08-29T10:10:52.777Z,50.70
2022-08-29T10:12:13.760Z,50.84
2022-08-29T10:13:31.841Z,50.96
2022-08-29T10:14:57.070Z,50.83
2022-08-29T10:16:27.981Z,50.89
2022-08-29T10:18:28.096Z,51.19
2022-08-29T10:19:34.163Z,50.94
2022-08-29T10:20:55.711Z,51.12
2022-08-29T10:22:42.807Z,51.43
2022-08-29T10:24:36.915Z,50.66
2022-08-29T10:25:46.072Z,50.43
2022-08-29T10:27:32.429Z,49.82
2022-08-29T10:28:56.011Z,49.81
2022-08-29T10:30:06.052Z,49.82
2022-08-29T10:32:01.882Z,49.40
2022-08-29T10:33:55.684Z,49.72
2022-08-29T10:35:18.410Z,49.58
2022-08-29T10:36:47.336Z,48.84
2022-08-29T10:38:19.097Z,49.29
2022-08-29T10:39:35.598Z,48.93
2022-08-29T10:40:55.402Z,49.06
2022-08-29T10:42:12.165Z,48.75
2022-08-29T10:43:40.826Z,48.87
2022-08-29T10:45:22.846Z,49.46
2022-08-29T10:46:57.182Z,50.09
2022-08-29T10:48:36.238Z,51.13
2022-08-29T10:49:58.608Z,51.00
2022-08-29T10:51:44.013Z,51.48
2022-08-29T10:53:00.244Z,51.80
2022-08-29T10:54:29.599Z,51.58
2022-08-29T10:55:56.593Z,51.64
2022-08-29T10:57:04.992Z,51.61
2022-08-29T10:58:26.591Z,51.15
2022-08-29T11:00:10.765Z,51.00
2022-08-29T11:02:14.101Z,50.91
2022-08-29T11:03:42.132Z,50.84
2022-08-29T11:04:54.928Z,50.34
2022-08-29T11:06:09.948Z,50.42
2022-08-29T11:07:47.233Z,50.07
2022-08-29T11:09:10.415Z,50.00
2022-08-29T11:10:40.701Z,47.83
2022-08-29T11:12:17.470Z,49.03
2022-08-29T11:13:47.775Z,48.59
2022-08-29T11:15:20.767Z,48.37
2022-08-29T11:16:52.921Z,48.29
2022-08-29T11:18:32.576Z,49.09
2022-08-29T11:20:02.885Z,49.57
2022-08-29T11:22:02.928Z,49.66
2022-08-29T11:23:35.862Z,50.12
2022-08-29T11:24:46.985Z,50.64
2022-08-29T11:25:52.205Z,50.59
2022-08-29T11:27:15.850Z,50.24
2022-08-29T11:29:17.586Z,50.12
2022-08-29T11:30:39.326Z,49.89
2022-08-29T11:32:03.791Z,50.00
2022-08-29T11:33:27.156Z,50.21
2022-08-29T11:35:21.527Z,50.63
2022-08-29T11:36:50.002Z,50.89
2022-08-29T11:37:54.343Z,50.42
2022-08-29T11:39:22.193Z,50.50
2022-08-29T11:43:55.656Z,51.31
2022-08-29T11:45:07.246Z,51.51
2022-08-29T11:46:14.580Z,50.90
2022-08-29T11:47:45.672Z,50.79
2022-08-29T11:48:56.828Z,50.41
2022-08-29T11:50:15.718Z,51.02
2022-08-29T11:51:40.873Z,51.63
2022-08-29T11:53:34.219Z,51.75
2022-08-29T11:54:40.750Z,52.36
2022-08-29T11:56:17.690Z,52.90
2022-08-29T11:57:21.773Z,52.70
2022-08-29T11:58:25.984Z,53.00
2022-08-29T11:59:55.277Z,53.32
2022-08-29T12:01:00.459Z,53.53
2022-08-29T12:02:04.872Z,54.00
2022-08-29T12:03:34.497Z,54.04
2022-08-29T12:05:17.116Z,53.71
2022-08-29T12:06:31.799Z,53.53
2022-08-29T12:07:50.342Z,54.02
2022-08-29T12:09:13.890Z,53.29
2022-08-29T12:10:24.469Z,53.41
2022-08-29T12:11:59.454Z,53.47
2022-08-29T12:13:06.842Z,52.96
2022-08-29T12:14:44.401Z,53.36
2022-08-29T12:15:54.120Z,53.35
2022-08-29T12:17:05.755Z,53.58
2022-08-29T12:18:15.954Z,53.61
2022-08-29T12:19:52.142Z,53.45
2022-08-29T12:20:56.996Z,53.14
2022-08-29T12:22:02.239Z,52.72
2022-08-29T12:23:08.120Z,52.67
2022-08-29T12:24:44.847Z,53.19
2022-08-29T12:26:43.474Z,52.62
2022-08-29T12:28:21.313Z,52.50
2022-08-29T12:29:41.995Z,52.32
2022-08-29T12:31:10.401Z,52.66
2022-08-29T12:33:06.760Z,52.52
2022-08-29T12:34:36.413Z,52.90
2022-08-29T12:36:09.849Z,53.08
2022-08-29T12:37:35.291Z,53.46
2022-08-29T12:39:30.968Z,53.29
2022-08-29T12:41:05.386Z,53.16
2022-08-29T12:42:39.596Z,53.57
2022-08-29T12:43:51.402Z,53.02
2022-08-29T12:45:12.035Z,53.51
2022-08-29T12:46:33.771Z,53.70
2022-08-29T12:47:55.410Z,53.54
2022-08-29T12:49:51.936Z,53.55
2022-08-29T12:50:57.473Z,53.43
2022-08-29T12:52:08.531Z,53.45
2022-08-29T12:53:26.600Z,53.70
2022-08-29T12:54:42.389Z,53.60
2022-08-29T12:56:02.176Z,53.21
2022-08-29T12:57:22.612Z,53.01
2022-08-29T12:58:53.421Z,52.86
2022-08-29T13:00:02.577Z,52.88
2022-08-29T13:01:40.421Z,52.84
2022-08-29T13:03:15.548Z,52.46
2022-08-29T13:04:32.053Z,53.10
2022-08-29T13:05:40.748Z,52.78
2022-08-29T13:07:06.581Z,53.10
2022-08-29T13:08:33.425Z,52.80
2022-08-29T13:09:47.476Z,52.78
2022-08-29T13:11:03.968Z,52.41
2022-08-29T13:12:16.782Z,51.75
2022-08-29T13:13:25.809Z,52.01
2022-08-29T13:14:30.605Z,51.88
2022-08-29T13:15:35.521Z,52.20
2022-08-29T13:16:41.169Z,51.85
2022-08-29T13:17:50.493Z,51.81
2022-08-29T13:19:09.946Z,51.89
2022-08-29T13:20:42.359Z,52.05
2022-08-29T13:21:48.073Z,52.13
2022-08-29T13:23:14.591Z,51.72
2022-08-29T13:24:24.918Z,52.14
2022-08-29T13:25:29.740Z,52.01
2022-08-29T13:27:04.836Z,51.48
2022-08-29T13:28:22.698Z,51.84
2022-08-29T13:29:36.352Z,51.91
2022-08-29T13:30:41.968Z,51.53
2022-08-29T13:32:24.380Z,52.33
2022-08-29T13:33:35.077Z,51.68
2022-08-29T13:34:59.345Z,51.64
2022-08-29T13:36:29.532Z,51.16
2022-08-29T13:37:38.972Z,51.53
2022-08-29T13:38:43.653Z,51.58
2022-08-29T13:39:48.776Z,50.99
2022-08-29T13:40:58.967Z,51.44
2022-08-29T13:42:03.146Z,51.12
2022-08-29T13:43:07.944Z,51.42
2022-08-29T13:44:37.248Z,50.74
2022-08-29T13:45:41.891Z,50.83
2022-08-29T13:46:48.056Z,50.25
2022-08-29T13:48:13.893Z,49.91
2022-08-29T13:49:24.609Z,50.73
2022-08-29T13:50:31.595Z,50.14
2022-08-29T13:51:36.117Z,50.18
2022-08-29T13:52:40.972Z,50.18
2022-08-29T13:53:45.774Z,50.30
2022-08-29T13:54:51.441Z,49.99
2022-08-29T13:55:56.308Z,50.26
2022-08-29T13:57:07.229Z,50.31
2022-08-29T13:58:15.258Z,50.23
2022-08-29T13:59:26.321Z,50.41
2022-08-29T14:00:37.172Z,49.79
2022-08-29T14:03:12.566Z,49.64
2022-08-29T14:05:42.807Z,50.20
2022-08-29T14:06:47.859Z,49.85
2022-08-29T14:07:52.353Z,50.08
2022-08-29T14:08:59.655Z,50.27
2022-08-29T14:10:10.562Z,48.88
2022-08-29T14:11:17.871Z,49.45
2022-08-29T14:16:26.618Z,48.58
2022-08-29T14:17:31.175Z,48.57
2022-08-29T14:18:35.918Z,48.31
2022-08-29T14:19:42.127Z,48.24
2022-08-29T14:20:50.722Z,48.26
2022-08-29T14:21:55.927Z,47.89
2022-08-29T14:23:00.163Z,48.09
2022-08-29T14:24:05.543Z,48.08
2022-08-29T14:25:13.704Z,48.08
2022-08-29T14:26:18.473Z,47.67
2022-08-29T14:27:23.323Z,47.74
2022-08-29T14:28:28.181Z,47.51
2022-08-29T14:29:36.839Z,47.54
2022-08-29T14:30:41.953Z,48.10
2022-08-29T14:31:57.690Z,48.00
2022-08-29T14:33:02.584Z,47.74
2022-08-29T14:34:07.339Z,47.76
2022-08-29T14:35:17.070Z,47.39
2022-08-29T14:36:32.313Z,47.55
2022-08-29T14:37:38.996Z,47.48
2022-08-29T14:38:44.432Z,47.79
2022-08-29T14:39:54.071Z,47.74
2022-08-29T14:40:58.668Z,47.37
2022-08-29T14:42:03.586Z,47.69
2022-08-29T14:43:09.451Z,47.99
2022-08-29T14:44:20.197Z,47.48
2022-08-29T14:45:25.510Z,47.58
2022-08-29T14:46:30.258Z,47.24
2022-08-29T14:47:35.125Z,47.03
2022-08-29T14:48:39.468Z,46.67
2022-08-29T14:49:43.789Z,47.08
2022-08-29T14:50:48.934Z,47.38
2022-08-29T14:51:53.824Z,47.02
2022-08-29T14:53:00.166Z,47.32
2022-08-29T14:54:06.101Z,47.21
2022-08-29T14:55:14.435Z,47.35
2022-08-29T14:56:37.450Z,47.39
2022-08-29T14:57:44.347Z,47.28
2022-08-29T14:58:48.711Z,47.61
2022-08-29T14:59:56.063Z,47.74
2022-08-29T15:01:00.916Z,47.37
2022-08-29T15:02:06.480Z,47.46
2022-08-29T15:03:10.976Z,47.41
2022-08-29T15:04:16.253Z,47.81
2022-08-29T15:05:21.534Z,47.86
2022-08-29T15:06:25.638Z,47.73
2022-08-29T15:07:30.388Z,47.38
2022-08-29T15:08:35.089Z,47.68
2022-08-29T15:09:42.253Z,47.11
2022-08-29T15:10:47.035Z,47.16
2022-08-29T15:11:51.584Z,47.10
2022-08-29T15:12:56.177Z,47.06
2022-08-29T15:14:04.368Z,47.58
2022-08-29T15:15:09.906Z,47.34
2022-08-29T15:16:14.494Z,47.69
2022-08-29T15:17:19.048Z,47.44
2022-08-29T15:19:09.435Z,47.27
2022-08-29T15:21:17.341Z,47.41
2022-08-29T15:22:23.925Z,47.28
2022-08-29T15:23:28.438Z,47.14
2022-08-29T15:24:33.172Z,47.36
2022-08-29T15:25:37.949Z,47.38
2022-08-29T15:26:47.742Z,47.09
2022-08-29T15:27:52.186Z,47.16
2022-08-29T15:28:57.326Z,46.67
2022-08-29T15:30:01.571Z,47.29
2022-08-29T15:31:06.531Z,47.43
2022-08-29T15:32:12.451Z,47.24